createdAt,value
2022-11-05T00:00:15.539Z,3.38
2022-11-05T00:02:05.900Z,3.58
2022-11-05T00:03:56.168Z,3.85
2022-11-05T00:05:46.595Z,4.43
2022-11-05T00:07:37.412Z,4.55
2022-11-05T00:09:27.836Z,5.18
2022-11-05T00:11:02.346Z,5.30
2022-11-05T00:12:52.790Z,5.95
2022-11-05T00:14:43.344Z,5.55
2022-11-05T00:16:34.993Z,5.43
2022-11-05T00:18:06.737Z,6.20
2022-11-05T00:19:38.496Z,5.78
2022-11-05T00:21:30.122Z,5.80
2022-11-05T00:23:20.217Z,5.93
2022-11-05T00:25:10.619Z,4.90
2022-11-05T00:26:42.389Z,5.55
2022-11-05T00:28:14.111Z,5.72
2022-11-05T00:29:45.867Z,5.00
2022-11-05T00:31:18.960Z,5.65
2022-11-05T00:32:51.278Z,5.40
2022-11-05T00:34:23.051Z,5.32
2022-11-05T00:35:54.731Z,5.07
2022-11-05T00:37:27.240Z,5.25
2022-11-05T00:38:59.000Z,5.47
2022-11-05T00:40:30.744Z,4.97
2022-11-05T00:42:21.020Z,5.57
2022-11-05T00:44:11.516Z,5.10
2022-11-05T00:45:43.364Z,4.97
2022-11-05T00:47:34.871Z,5.15
2022-11-05T00:49:25.151Z,5.10
2022-11-05T00:50:56.846Z,4.90
2022-11-05T00:52:47.200Z,5.47
2022-11-05T00:54:18.934Z,5.43
2022-11-05T00:55:50.814Z,4.93
2022-11-05T00:57:22.549Z,5.38
2022-11-05T00:58:56.483Z,4.95
2022-11-05T01:00:29.364Z,5.13
2022-11-05T01:02:01.216Z,5.50
2022-11-05T01:03:35.621Z,5.70
2022-11-05T01:05:08.040Z,5.45
2022-11-05T01:06:39.759Z,5.47
2022-11-05T01:08:11.637Z,5.72
2022-11-05T01:09:43.316Z,6.00
2022-11-05T01:11:34.635Z,5.88
2022-11-05T01:13:11.666Z,6.40
2022-11-05T01:14:44.592Z,6.03
2022-11-05T01:16:16.352Z,6.38
2022-11-05T01:17:48.112Z,5.90
2022-11-05T01:19:21.192Z,6.40
2022-11-05T01:20:53.095Z,6.40
2022-11-05T01:22:24.809Z,5.68
2022-11-05T01:23:56.563Z,6.07
2022-11-05T01:25:28.305Z,6.10
2022-11-05T01:27:00.043Z,5.97
2022-11-05T01:28:31.772Z,6.13
2022-11-05T01:30:04.905Z,5.90
2022-11-05T01:31:36.616Z,6.38
2022-11-05T01:33:08.478Z,5.80
2022-11-05T01:34:41.857Z,6.22
2022-11-05T01:36:13.603Z,6.25
2022-11-05T01:37:45.394Z,6.78
2022-11-05T01:39:17.188Z,5.78
2022-11-05T01:40:48.958Z,5.93
2022-11-05T01:42:21.449Z,6.10
2022-11-05T01:43:57.363Z,5.93
2022-11-05T01:45:29.042Z,5.50
2022-11-05T01:47:00.818Z,5.50
2022-11-05T01:48:33.944Z,5.80
2022-11-05T01:50:17.280Z,5.65
2022-11-05T01:51:48.962Z,5.75
2022-11-05T01:53:24.553Z,5.40
2022-11-05T01:54:56.278Z,5.80
2022-11-05T01:56:30.230Z,5.68
2022-11-05T01:58:02.012Z,5.80
2022-11-05T01:59:34.752Z,6.30
2022-11-05T02:01:06.465Z,5.90
2022-11-05T02:02:38.175Z,5.80
2022-11-05T02:04:11.581Z,5.60
2022-11-05T02:05:44.632Z,5.47
2022-11-05T02:07:17.310Z,5.40
2022-11-05T02:08:53.846Z,5.03
2022-11-05T02:10:25.706Z,5.40
2022-11-05T02:11:57.549Z,5.60
2022-11-05T02:13:29.295Z,5.68
2022-11-05T02:15:01.036Z,5.40
2022-11-05T02:16:37.985Z,5.82
2022-11-05T02:18:15.348Z,5.55
2022-11-05T02:20:10.029Z,5.18
2022-11-05T02:22:11.612Z,5.28
2022-11-05T02:24:08.491Z,5.38
2022-11-05T02:26:03.625Z,4.90
2022-11-05T02:27:46.231Z,4.72
2022-11-05T02:29:38.232Z,4.85
2022-11-05T02:31:12.680Z,5.05
2022-11-05T02:33:05.561Z,4.78
2022-11-05T02:34:42.334Z,5.00
2022-11-05T02:36:25.291Z,4.78
2022-11-05T02:37:59.864Z,5.03
2022-11-05T02:39:37.793Z,4.68
2022-11-05T02:41:14.524Z,4.72
2022-11-05T02:42:48.842Z,4.85
2022-11-05T02:44:25.948Z,4.90
2022-11-05T02:46:01.115Z,4.82
2022-11-05T02:47:37.893Z,5.03
2022-11-05T02:49:17.995Z,4.75
2022-11-05T02:50:52.818Z,4.90
2022-11-05T02:52:27.645Z,4.10
2022-11-05T02:54:03.559Z,4.32
2022-11-05T02:55:37.287Z,4.70
2022-11-05T02:57:09.026Z,4.13
2022-11-05T02:58:40.767Z,4.25
2022-11-05T03:00:40.528Z,4.25
2022-11-05T03:02:12.296Z,4.30
2022-11-05T03:03:46.190Z,4.30
2022-11-05T03:05:17.911Z,4.57
2022-11-05T03:07:01.237Z,4.68
2022-11-05T03:08:40.518Z,4.53
2022-11-05T03:10:25.629Z,4.45
2022-11-05T03:12:02.114Z,4.20
2022-11-05T03:13:35.958Z,4.13
2022-11-05T03:15:13.103Z,4.43
2022-11-05T03:16:48.272Z,4.35
2022-11-05T03:18:21.875Z,4.03
2022-11-05T03:19:59.675Z,4.50
2022-11-05T03:21:37.691Z,3.95
2022-11-05T03:23:12.540Z,4.13
2022-11-05T03:24:46.291Z,4.28
2022-11-05T03:26:19.200Z,4.78
2022-11-05T03:27:54.648Z,4.55
2022-11-05T03:29:28.494Z,4.70
2022-11-05T03:31:00.192Z,4.55
2022-11-05T03:32:32.959Z,4.80
2022-11-05T03:34:04.916Z,4.80
2022-11-05T03:35:38.960Z,5.07
2022-11-05T03:37:10.597Z,5.00
2022-11-05T03:38:43.008Z,4.70
2022-11-05T03:40:14.961Z,4.95
2022-11-05T03:41:47.926Z,4.82
2022-11-05T03:43:19.578Z,4.53
2022-11-05T03:44:52.679Z,4.78
2022-11-05T03:46:26.380Z,4.68
2022-11-05T03:47:58.836Z,4.38
2022-11-05T03:49:32.248Z,4.40
2022-11-05T03:51:08.452Z,4.20
2022-11-05T03:52:42.041Z,4.50
2022-11-05T03:54:13.718Z,4.50
2022-11-05T03:55:48.517Z,4.03
2022-11-05T03:57:21.345Z,4.57
2022-11-05T03:58:58.498Z,4.40
2022-11-05T04:00:30.706Z,4.13
2022-11-05T04:02:02.486Z,4.65
2022-11-05T04:03:36.521Z,4.32
2022-11-05T04:05:08.416Z,4.00
2022-11-05T04:07:00.309Z,3.80
2022-11-05T04:08:50.635Z,4.00
2022-11-05T04:10:40.986Z,4.20
2022-11-05T04:12:31.597Z,4.38
2022-11-05T04:14:03.286Z,4.10
2022-11-05T04:15:54.842Z,4.10
2022-11-05T04:17:26.533Z,4.10
2022-11-05T04:18:58.355Z,3.88
2022-11-05T04:20:59.337Z,4.22
2022-11-05T04:22:51.418Z,4.60
2022-11-05T04:24:23.166Z,4.22
2022-11-05T04:25:54.786Z,3.80
2022-11-05T04:27:26.427Z,4.28
2022-11-05T04:29:16.442Z,4.00
2022-11-05T04:30:48.107Z,4.00
2022-11-05T04:32:19.787Z,4.28
2022-11-05T04:33:51.482Z,4.20
2022-11-05T04:35:23.188Z,4.53
2022-11-05T04:36:54.840Z,4.57
2022-11-05T04:38:27.870Z,4.15
2022-11-05T04:39:59.541Z,4.03
2022-11-05T04:41:31.313Z,4.43
2022-11-05T04:43:03.104Z,4.07
2022-11-05T04:44:34.866Z,4.18
2022-11-05T04:46:06.591Z,4.45
2022-11-05T04:47:38.265Z,4.38
2022-11-05T04:49:09.957Z,4.28
2022-11-05T04:50:41.668Z,4.30
2022-11-05T04:52:13.334Z,4.15
2022-11-05T04:53:46.388Z,4.05
2022-11-05T04:55:18.247Z,4.63
2022-11-05T04:56:49.944Z,4.43
2022-11-05T04:58:21.615Z,4.20
2022-11-05T04:59:57.839Z,4.28
2022-11-05T05:01:29.605Z,4.45
2022-11-05T05:03:01.402Z,4.57
2022-11-05T05:04:33.102Z,4.70
2022-11-05T05:06:05.031Z,4.65
2022-11-05T05:07:36.700Z,4.88
2022-11-05T05:09:09.749Z,4.40
2022-11-05T05:10:41.433Z,4.65
2022-11-05T05:12:13.183Z,4.57
2022-11-05T05:13:44.923Z,4.75
2022-11-05T05:15:16.721Z,4.95
2022-11-05T05:16:48.421Z,5.05
2022-11-05T05:18:20.598Z,5.10
2022-11-05T05:20:11.081Z,5.10
2022-11-05T05:21:42.728Z,5.15
2022-11-05T05:23:14.413Z,4.97
2022-11-05T05:24:52.407Z,4.95
2022-11-05T05:26:24.580Z,5.28
2022-11-05T05:27:56.752Z,5.35
2022-11-05T05:29:28.428Z,4.68
2022-11-05T05:31:00.683Z,4.95
2022-11-05T05:32:32.357Z,5.38
2022-11-05T05:34:04.103Z,4.60
2022-11-05T05:35:35.916Z,4.50
2022-11-05T05:37:07.537Z,4.90
2022-11-05T05:38:39.189Z,4.15
2022-11-05T05:40:12.594Z,4.50
2022-11-05T05:41:44.214Z,4.38
2022-11-05T05:43:15.966Z,4.22
2022-11-05T05:44:47.559Z,4.20
2022-11-05T05:46:19.768Z,4.50
2022-11-05T05:47:51.438Z,4.72
2022-11-05T05:49:23.057Z,3.90
2022-11-05T05:50:54.715Z,4.40
2022-11-05T05:52:26.387Z,4.60
2022-11-05T05:53:58.551Z,4.80
2022-11-05T05:55:31.643Z,4.22
2022-11-05T05:57:03.566Z,4.88
2022-11-05T05:58:36.996Z,4.13
2022-11-05T06:00:10.092Z,4.65
2022-11-05T06:01:41.936Z,4.68
2022-11-05T06:03:14.379Z,4.43
2022-11-05T06:04:46.391Z,4.57
2022-11-05T06:06:21.210Z,3.80
2022-11-05T06:07:56.456Z,4.60
2022-11-05T06:09:28.134Z,4.97
2022-11-05T06:11:01.629Z,4.38
2022-11-05T06:12:33.498Z,4.28
2022-11-05T06:14:05.239Z,4.35
2022-11-05T06:15:36.955Z,4.45
2022-11-05T06:17:08.709Z,4.63
2022-11-05T06:18:40.459Z,4.38
2022-11-05T06:20:12.350Z,4.30
2022-11-05T06:21:44.147Z,4.70
2022-11-05T06:23:15.940Z,4.40
2022-11-05T06:24:47.605Z,4.45
2022-11-05T06:26:20.735Z,4.10
2022-11-05T06:27:53.136Z,4.40
2022-11-05T06:29:24.901Z,4.50
2022-11-05T06:30:56.880Z,4.70
2022-11-05T06:32:28.753Z,4.40
2022-11-05T06:34:00.502Z,4.10
2022-11-05T06:35:32.266Z,4.18
2022-11-05T06:37:04.034Z,4.72
2022-11-05T06:38:36.464Z,4.10
2022-11-05T06:40:08.874Z,4.28
2022-11-05T06:42:17.155Z,4.60
2022-11-05T06:43:33.825Z,4.25
2022-11-05T06:45:06.895Z,5.30
2022-11-05T06:46:38.622Z,4.85
2022-11-05T06:48:10.347Z,5.00
2022-11-05T06:49:42.074Z,4.55
2022-11-05T06:51:13.794Z,4.20
2022-11-05T06:52:47.166Z,4.28
2022-11-05T06:54:18.884Z,4.25
2022-11-05T06:55:50.648Z,4.43
2022-11-05T06:57:23.728Z,5.07
2022-11-05T06:58:55.518Z,4.10
2022-11-05T07:00:27.237Z,4.40
2022-11-05T07:01:58.938Z,4.82
2022-11-05T07:03:30.851Z,4.78
2022-11-05T07:05:02.629Z,4.65
2022-11-05T07:06:36.953Z,5.60
2022-11-05T07:08:09.150Z,4.57
2022-11-05T07:09:43.189Z,4.45
2022-11-05T07:11:14.999Z,4.70
2022-11-05T07:12:48.165Z,4.60
2022-11-05T07:14:19.983Z,4.25
2022-11-05T07:15:51.774Z,4.65
2022-11-05T07:17:23.503Z,4.28
2022-11-05T07:18:55.982Z,4.40
2022-11-05T07:20:33.282Z,4.72
2022-11-05T07:22:05.752Z,4.70
2022-11-05T07:23:37.463Z,5.78
2022-11-05T07:25:09.541Z,11.13
2022-11-05T07:26:41.675Z,6.35
2022-11-05T07:28:14.826Z,5.90
2022-11-05T07:29:46.540Z,5.20
2022-11-05T07:31:18.224Z,5.75
2022-11-05T07:32:49.936Z,5.43
2022-11-05T07:34:21.628Z,6.03
2022-11-05T07:35:55.984Z,6.35
2022-11-05T07:37:27.659Z,5.20
2022-11-05T07:39:00.643Z,5.10
2022-11-05T07:40:32.511Z,4.57
2022-11-05T07:42:04.357Z,5.15
2022-11-05T07:43:37.477Z,4.38
2022-11-05T07:45:10.280Z,4.38
2022-11-05T07:46:42.066Z,4.30
2022-11-05T07:48:13.749Z,4.18
2022-11-05T07:49:53.231Z,4.70
2022-11-05T07:51:24.980Z,4.90
2022-11-05T07:53:00.108Z,5.57
2022-11-05T07:54:31.988Z,9.55
2022-11-05T07:56:03.982Z,5.97
2022-11-05T07:57:40.829Z,6.35
2022-11-05T07:59:16.714Z,6.72
2022-11-05T08:00:48.672Z,5.45
2022-11-05T08:02:20.726Z,7.07
2022-11-05T08:03:52.534Z,10.10
2022-11-05T08:05:24.233Z,4.93
2022-11-05T08:06:55.998Z,6.35
2022-11-05T08:08:27.697Z,6.45
2022-11-05T08:09:59.337Z,5.78
2022-11-05T08:11:31.494Z,6.95
2022-11-05T08:13:03.253Z,7.68
2022-11-05T08:14:36.568Z,8.18
2022-11-05T08:16:09.067Z,7.75
2022-11-05T08:17:41.755Z,7.82
2022-11-05T08:19:16.026Z,5.70
2022-11-05T08:20:50.490Z,7.13
2022-11-05T08:22:23.090Z,4.57
2022-11-05T08:23:54.875Z,4.20
2022-11-05T08:25:26.529Z,4.50
2022-11-05T08:26:58.172Z,4.63
2022-11-05T08:28:29.794Z,4.75
2022-11-05T08:30:03.125Z,4.18
2022-11-05T08:31:37.036Z,5.00
2022-11-05T08:33:09.964Z,14.25
2022-11-05T08:34:41.962Z,6.38
2022-11-05T08:36:13.758Z,6.55
2022-11-05T08:37:48.557Z,24.20
2022-11-05T08:39:20.265Z,12.40
2022-11-05T08:40:55.779Z,24.85
2022-11-05T08:42:27.456Z,12.25
2022-11-05T08:43:59.106Z,12.15
2022-11-05T08:45:32.137Z,16.20
2022-11-05T08:47:03.762Z,7.70
2022-11-05T08:48:35.379Z,14.40
2022-11-05T08:50:07.753Z,13.57
2022-11-05T08:51:39.421Z,14.77
2022-11-05T08:53:11.494Z,10.43
2022-11-05T08:54:43.726Z,6.75
2022-11-05T08:57:03.555Z,9.00
2022-11-05T08:58:37.660Z,27.10
2022-11-05T09:01:50.595Z,6.00
2022-11-05T09:03:22.495Z,5.07
2022-11-05T09:04:54.085Z,15.57
2022-11-05T09:06:25.761Z,6.65
2022-11-05T09:08:01.008Z,4.78
2022-11-05T09:09:33.380Z,6.68
2022-11-05T09:11:07.763Z,15.15
2022-11-05T09:12:39.413Z,10.48
2022-11-05T09:14:11.109Z,9.48
2022-11-05T09:15:42.728Z,10.60
2022-11-05T09:17:17.504Z,6.70
2022-11-05T09:18:50.236Z,9.15
2022-11-05T09:20:22.131Z,3.92
2022-11-05T09:21:53.996Z,9.77
2022-11-05T09:23:25.621Z,12.15
2022-11-05T09:24:57.227Z,9.23
2022-11-05T09:26:29.073Z,13.65
2022-11-05T09:28:08.381Z,10.57
2022-11-05T09:29:39.995Z,12.52
2022-11-05T09:31:11.776Z,8.93
2022-11-05T09:32:44.806Z,14.15
2022-11-05T09:34:16.461Z,15.00
2022-11-05T09:35:48.080Z,15.15
2022-11-05T09:37:19.706Z,19.02
2022-11-05T09:38:51.419Z,20.42
2022-11-05T09:40:23.141Z,9.80
2022-11-05T09:41:55.768Z,6.65
2022-11-05T09:43:31.883Z,6.40
2022-11-05T09:45:04.519Z,11.05
2022-11-05T09:46:39.030Z,8.48
2022-11-05T09:48:14.737Z,5.43
2022-11-05T09:49:48.568Z,3.90
2022-11-05T09:51:23.906Z,3.40
2022-11-05T09:52:56.057Z,4.15
2022-11-05T09:54:31.602Z,3.05
2022-11-05T09:56:03.383Z,2.80
2022-11-05T09:57:37.191Z,2.70
2022-11-05T09:59:14.554Z,2.80
2022-11-05T10:00:48.654Z,2.72
2022-11-05T10:02:21.802Z,3.10
2022-11-05T10:03:57.165Z,2.83
2022-11-05T10:05:28.909Z,3.00
2022-11-05T10:07:02.614Z,2.10
2022-11-05T10:09:16.920Z,2.47
2022-11-05T10:11:10.523Z,2.65
2022-11-05T10:13:06.398Z,2.20
2022-11-05T10:15:31.033Z,2.60
2022-11-05T10:17:05.362Z,2.30
2022-11-05T10:23:44.327Z,2.10
2022-11-05T10:26:05.934Z,2.10
2022-11-05T10:28:54.445Z,2.28
2022-11-05T10:30:26.141Z,2.63
2022-11-05T10:32:08.929Z,3.05
2022-11-05T10:33:42.536Z,2.92
2022-11-05T10:35:22.489Z,2.60
2022-11-05T10:37:13.187Z,3.00
2022-11-05T10:38:45.429Z,2.72
2022-11-05T10:43:34.448Z,2.70
2022-11-05T10:45:11.879Z,2.85
2022-11-05T10:46:51.133Z,2.83
2022-11-05T10:48:29.996Z,3.03
2022-11-05T10:50:02.509Z,3.00
2022-11-05T10:51:34.594Z,3.08
2022-11-05T10:53:12.950Z,2.80
2022-11-05T10:54:44.743Z,3.08
2022-11-05T10:56:33.391Z,2.97
2022-11-05T10:58:09.794Z,2.78
2022-11-05T10:59:41.521Z,3.10
2022-11-05T11:01:13.329Z,3.17
2022-11-05T11:02:46.667Z,2.92
2022-11-05T11:04:22.230Z,3.10
2022-11-05T11:05:58.064Z,3.10
2022-11-05T11:07:30.351Z,3.42
2022-11-05T11:09:05.827Z,2.97
2022-11-05T11:10:41.054Z,3.20
2022-11-05T11:12:15.136Z,2.90
2022-11-05T11:13:50.060Z,2.50
2022-11-05T11:15:24.434Z,2.92
2022-11-05T11:16:57.666Z,2.53
2022-11-05T11:18:32.438Z,2.53
2022-11-05T11:20:20.711Z,2.50
2022-11-05T11:22:21.180Z,2.80
2022-11-05T11:23:54.477Z,2.70
2022-11-05T11:25:28.804Z,2.60
2022-11-05T11:27:01.446Z,3.00
2022-11-05T11:28:34.934Z,7.90
2022-11-05T11:30:07.593Z,3.90
2022-11-05T11:31:39.507Z,3.40
2022-11-05T11:33:11.410Z,3.15
2022-11-05T11:34:43.393Z,3.00
2022-11-05T11:36:16.722Z,3.20
2022-11-05T11:37:48.388Z,2.80
2022-11-05T11:39:21.729Z,3.00
2022-11-05T11:41:01.983Z,2.70
2022-11-05T11:42:34.668Z,2.60
2022-11-05T11:44:08.570Z,2.55
2022-11-05T11:45:44.957Z,2.50
2022-11-05T11:47:18.323Z,2.45
2022-11-05T11:48:49.968Z,2.72
2022-11-05T11:50:36.345Z,2.20
2022-11-05T11:52:10.704Z,2.63
2022-11-05T11:53:42.342Z,2.90
2022-11-05T11:55:19.678Z,2.80
2022-11-05T11:56:52.675Z,3.00
2022-11-05T11:58:34.858Z,2.85
2022-11-05T12:00:09.832Z,2.92
2022-11-05T12:02:06.049Z,2.95
2022-11-05T12:03:39.858Z,2.90
2022-11-05T12:05:19.851Z,2.90
2022-11-05T12:06:56.747Z,2.83
2022-11-05T12:08:45.325Z,3.20
2022-11-05T12:10:23.519Z,2.92
2022-11-05T12:12:00.322Z,3.10
2022-11-05T12:14:03.878Z,2.90
2022-11-05T12:15:40.950Z,2.90
2022-11-05T12:17:19.674Z,3.17
2022-11-05T12:18:54.701Z,15.15
2022-11-05T12:20:38.744Z,17.90
2022-11-05T12:22:15.066Z,12.00
2022-11-05T12:24:25.731Z,7.20
2022-11-05T12:25:58.858Z,6.85
2022-11-05T12:27:51.410Z,5.25
2022-11-05T12:29:36.263Z,6.43
2022-11-05T12:31:13.625Z,4.50
2022-11-05T12:32:57.549Z,5.10
2022-11-05T12:34:37.950Z,4.00
2022-11-05T12:36:15.549Z,3.45
2022-11-05T12:37:51.165Z,3.30
2022-11-05T12:39:30.660Z,3.30
2022-11-05T12:41:09.548Z,3.70
2022-11-05T12:42:55.467Z,3.60
2022-11-05T12:44:59.579Z,3.50
2022-11-05T12:46:34.889Z,7.40
2022-11-05T12:48:14.531Z,12.45
2022-11-05T12:49:53.453Z,10.05
2022-11-05T12:51:35.388Z,6.25
2022-11-05T12:53:22.795Z,4.28
2022-11-05T12:55:01.901Z,6.25
2022-11-05T12:56:38.784Z,6.93
2022-11-05T12:58:13.503Z,8.05
2022-11-05T12:59:47.745Z,10.85
2022-11-05T13:01:23.230Z,10.23
2022-11-05T13:02:56.504Z,7.85
2022-11-05T13:04:34.244Z,8.02
2022-11-05T13:06:07.306Z,5.35
2022-11-05T13:07:39.757Z,7.00
2022-11-05T13:09:13.391Z,13.60
2022-11-05T13:10:57.052Z,7.90
2022-11-05T13:12:30.270Z,9.02
2022-11-05T13:14:06.227Z,11.43
2022-11-05T13:15:41.999Z,11.10
2022-11-05T13:17:15.021Z,10.07
2022-11-05T13:18:48.187Z,7.60
2022-11-05T13:20:20.971Z,5.78
2022-11-05T13:21:53.994Z,5.25
2022-11-05T13:23:29.666Z,4.97
2022-11-05T13:25:04.744Z,5.32
2022-11-05T13:26:38.725Z,4.43
2022-11-05T13:28:14.656Z,5.65
2022-11-05T13:29:48.671Z,4.95
2022-11-05T13:31:21.927Z,5.05
2022-11-05T13:32:56.253Z,4.40
2022-11-05T13:34:28.092Z,5.25
2022-11-05T13:36:22.215Z,5.65
2022-11-05T13:38:15.076Z,5.72
2022-11-05T13:39:48.243Z,5.30
2022-11-05T13:41:25.076Z,5.07
2022-11-05T13:43:21.981Z,5.60
2022-11-05T13:45:22.820Z,5.40
2022-11-05T13:47:11.795Z,5.20
2022-11-05T13:49:12.690Z,4.85
2022-11-05T13:50:58.379Z,4.75
2022-11-05T13:52:42.533Z,4.43
2022-11-05T13:54:33.226Z,4.63
2022-11-05T13:56:09.926Z,4.60
2022-11-05T13:58:01.095Z,4.43
2022-11-05T13:59:55.355Z,4.35
2022-11-05T14:01:41.862Z,3.92
2022-11-05T14:03:16.364Z,4.07
2022-11-05T14:04:49.176Z,4.32
2022-11-05T14:06:23.616Z,4.22
2022-11-05T14:07:55.400Z,3.60
2022-11-05T14:09:27.465Z,3.60
2022-11-05T14:11:00.687Z,3.70
2022-11-05T14:12:33.066Z,3.00
2022-11-05T14:14:06.747Z,3.33
2022-11-05T14:15:38.497Z,3.60
2022-11-05T14:17:27.313Z,3.40
2022-11-05T14:19:28.370Z,3.30
2022-11-05T14:21:01.580Z,3.25
2022-11-05T14:22:40.780Z,3.70
2022-11-05T14:24:25.912Z,3.53
2022-11-05T14:25:57.937Z,3.60
2022-11-05T14:27:43.652Z,3.50
2022-11-05T14:29:22.506Z,3.70
2022-11-05T14:30:54.245Z,3.40
2022-11-05T14:32:28.346Z,3.47
2022-11-05T14:34:02.427Z,3.58
2022-11-05T14:35:36.298Z,3.33
2022-11-05T14:37:30.265Z,3.30
2022-11-05T14:39:21.210Z,3.40
2022-11-05T14:40:58.505Z,3.30
2022-11-05T14:42:30.398Z,3.50
2022-11-05T14:44:05.813Z,3.70
2022-11-05T14:45:38.170Z,3.47
2022-11-05T14:47:19.985Z,3.80
2022-11-05T14:48:54.256Z,3.50
2022-11-05T14:50:30.738Z,3.55
2022-11-05T14:52:06.647Z,3.90
2022-11-05T14:53:38.991Z,3.63
2022-11-05T14:55:25.802Z,3.75
2022-11-05T14:56:58.424Z,3.53
2022-11-05T14:58:35.506Z,3.90
2022-11-05T15:00:41.596Z,3.30
2022-11-05T15:02:14.800Z,3.92
2022-11-05T15:04:16.048Z,3.83
2022-11-05T15:05:50.247Z,3.53
2022-11-05T15:07:35.765Z,3.70
2022-11-05T15:09:17.452Z,3.50
2022-11-05T15:10:49.091Z,3.88
2022-11-05T15:12:24.190Z,3.70
2022-11-05T15:14:00.974Z,3.45
2022-11-05T15:15:40.370Z,3.20
2022-11-05T15:17:16.424Z,3.58
2022-11-05T15:18:48.072Z,3.08
2022-11-05T15:20:22.187Z,3.15
2022-11-05T15:22:01.246Z,3.70
2022-11-05T15:23:38.220Z,3.38
2022-11-05T15:25:18.410Z,3.97
2022-11-05T15:26:54.147Z,3.60
2022-11-05T15:28:28.997Z,3.60
2022-11-05T15:30:05.305Z,3.60
2022-11-05T15:31:37.556Z,3.70
2022-11-05T15:33:10.825Z,4.38
2022-11-05T15:34:55.477Z,3.95
2022-11-05T15:36:29.942Z,3.38
2022-11-05T15:38:02.688Z,3.38
2022-11-05T15:39:42.255Z,3.65
2022-11-05T15:41:15.568Z,3.40
2022-11-05T15:42:47.433Z,3.60
2022-11-05T15:44:24.571Z,3.45
2022-11-05T15:46:04.696Z,3.50
2022-11-05T15:47:36.509Z,3.50
2022-11-05T15:49:09.123Z,4.20
2022-11-05T15:50:41.049Z,4.50
2022-11-05T15:52:15.289Z,4.65
2022-11-05T15:55:51.807Z,4.43
2022-11-05T15:57:26.253Z,4.50
2022-11-05T15:59:00.141Z,4.30
2022-11-05T16:00:32.696Z,4.80
2022-11-05T16:02:16.815Z,4.35
2022-11-05T16:03:48.683Z,5.40
2022-11-05T16:05:20.361Z,5.50
2022-11-05T16:06:53.889Z,5.53
2022-11-05T16:08:29.161Z,8.18
2022-11-05T16:10:01.439Z,5.82
2022-11-05T16:11:33.295Z,5.40
2022-11-05T16:13:28.767Z,6.80
2022-11-05T16:15:17.829Z,5.00
2022-11-05T16:16:49.553Z,7.50
2022-11-05T16:18:21.858Z,8.48
2022-11-05T16:19:53.624Z,20.88
2022-11-05T16:21:25.329Z,21.05
2022-11-05T16:22:57.774Z,17.38
2022-11-05T16:24:30.953Z,10.00
2022-11-05T16:26:02.601Z,8.50
2022-11-05T16:27:34.216Z,6.15
2022-11-05T16:29:11.140Z,4.63
2022-11-05T16:30:52.138Z,6.55
2022-11-05T16:32:29.861Z,5.78
2022-11-05T16:34:02.640Z,5.93
2022-11-05T16:35:34.269Z,6.22
2022-11-05T16:37:06.723Z,9.55
2022-11-05T16:38:38.531Z,6.47
2022-11-05T16:40:14.868Z,6.95
2022-11-05T16:41:48.400Z,7.15
2022-11-05T16:43:21.406Z,6.82
2022-11-05T16:44:54.947Z,5.50
2022-11-05T16:46:28.732Z,5.05
2022-11-05T16:48:00.610Z,5.50
2022-11-05T16:49:32.237Z,5.68
2022-11-05T16:51:04.046Z,5.97
2022-11-05T16:52:35.673Z,5.15
2022-11-05T16:54:07.315Z,5.13
2022-11-05T16:55:41.259Z,5.40
2022-11-05T16:57:18.719Z,5.63
2022-11-05T16:58:50.454Z,5.07
2022-11-05T17:00:22.429Z,7.22
2022-11-05T17:01:55.944Z,6.28
2022-11-05T17:03:30.616Z,5.63
2022-11-05T17:05:02.244Z,5.50
2022-11-05T17:06:33.878Z,5.72
2022-11-05T17:08:05.748Z,5.82
2022-11-05T17:09:37.407Z,5.97
2022-11-05T17:11:13.729Z,5.85
2022-11-05T17:12:48.196Z,5.72
2022-11-05T17:14:22.446Z,5.70
2022-11-05T17:15:56.726Z,5.55
2022-11-05T17:17:29.140Z,6.00
2022-11-05T17:19:00.761Z,6.05
2022-11-05T17:20:40.734Z,7.28
2022-11-05T17:22:12.789Z,7.32
2022-11-05T17:23:44.435Z,7.50
2022-11-05T17:25:16.063Z,8.45
2022-11-05T17:26:51.330Z,10.32
2022-11-05T17:28:23.084Z,9.38
2022-11-05T17:29:54.849Z,8.32
2022-11-05T17:31:27.266Z,6.60
2022-11-05T17:32:59.200Z,6.85
2022-11-05T17:34:30.984Z,6.65
2022-11-05T17:36:05.564Z,5.80
2022-11-05T17:37:37.223Z,6.32
2022-11-05T17:39:08.896Z,5.63
2022-11-05T17:40:40.582Z,6.22
2022-11-05T17:42:13.579Z,6.68
2022-11-05T17:43:48.324Z,6.35
2022-11-05T17:45:28.910Z,6.28
2022-11-05T17:47:00.503Z,6.40
2022-11-05T17:50:25.176Z,6.40
2022-11-05T17:51:56.818Z,6.47
2022-11-05T17:53:28.759Z,6.40
2022-11-05T17:55:00.441Z,8.25
2022-11-05T17:56:34.961Z,9.13
2022-11-05T17:58:09.443Z,12.80
2022-11-05T17:59:42.060Z,18.05
2022-11-05T18:01:25.160Z,15.75
2022-11-05T18:02:56.956Z,12.20
2022-11-05T18:04:29.968Z,10.32
2022-11-05T18:06:02.256Z,8.68
2022-11-05T18:07:37.119Z,8.73
2022-11-05T18:09:12.042Z,10.80
2022-11-05T18:10:45.769Z,9.00
2022-11-05T18:12:17.404Z,8.30
2022-11-05T18:13:53.524Z,9.88
2022-11-05T18:15:27.018Z,8.88
2022-11-05T18:17:00.283Z,8.80
2022-11-05T18:18:31.972Z,9.05
2022-11-05T18:20:04.215Z,8.25
2022-11-05T18:21:35.911Z,7.72
2022-11-05T18:23:07.543Z,7.25
2022-11-05T18:24:39.158Z,7.07
2022-11-05T18:26:11.100Z,7.18
2022-11-05T18:27:42.805Z,6.43
2022-11-05T18:29:15.886Z,7.03
2022-11-05T18:30:47.683Z,7.60
2022-11-05T18:32:19.354Z,8.73
2022-11-05T18:33:51.266Z,7.93
2022-11-05T18:35:22.888Z,8.57
2022-11-05T18:36:56.516Z,8.38
2022-11-05T18:38:28.433Z,8.10
2022-11-05T18:40:00.061Z,9.65
2022-11-05T18:41:31.695Z,8.55
2022-11-05T18:43:03.344Z,8.20
2022-11-05T18:44:39.243Z,8.15
2022-11-05T18:46:29.187Z,7.85
2022-11-05T18:48:03.643Z,8.27
2022-11-05T18:49:36.256Z,8.13
2022-11-05T18:51:08.825Z,8.32
2022-11-05T18:52:40.450Z,8.13
2022-11-05T18:54:12.055Z,8.27
2022-11-05T18:55:43.691Z,8.40
2022-11-05T18:57:15.407Z,8.45
2022-11-05T18:58:47.251Z,8.70
2022-11-05T19:00:20.610Z,11.82
2022-11-05T19:01:52.987Z,12.40
2022-11-05T19:03:24.733Z,11.45
2022-11-05T19:05:22.542Z,12.02
2022-11-05T19:06:48.212Z,10.50
2022-11-05T19:08:19.939Z,9.98
2022-11-05T19:09:51.623Z,9.65
2022-11-05T19:11:24.501Z,9.00
2022-11-05T19:12:56.380Z,8.85
2022-11-05T19:14:28.080Z,9.70
2022-11-05T19:16:01.164Z,9.50
2022-11-05T19:17:33.206Z,8.05
2022-11-05T19:19:05.070Z,7.68
2022-11-05T19:20:37.916Z,7.93
2022-11-05T19:22:10.293Z,8.00
2022-11-05T19:23:42.087Z,6.95
2022-11-05T19:25:13.721Z,7.80
2022-11-05T19:26:53.748Z,7.90
2022-11-05T19:28:25.645Z,8.60
2022-11-05T19:29:57.297Z,7.95
2022-11-05T19:31:34.567Z,7.28
2022-11-05T19:33:06.209Z,6.40
2022-11-05T19:34:37.900Z,5.90
2022-11-05T19:36:10.193Z,5.72
2022-11-05T19:37:41.920Z,6.15
2022-11-05T19:39:14.104Z,5.97
2022-11-05T19:40:45.833Z,5.75
2022-11-05T19:42:17.640Z,6.07
2022-11-05T19:43:49.383Z,6.25
2022-11-05T19:45:43.718Z,7.07
2022-11-05T19:47:14.103Z,7.65
2022-11-05T19:48:45.859Z,7.57
2022-11-05T19:50:17.734Z,7.38
2022-11-05T19:51:49.428Z,7.60
2022-11-05T19:53:21.144Z,8.00
2022-11-05T19:54:52.753Z,8.00
2022-11-05T19:56:25.764Z,7.90
2022-11-05T19:57:57.426Z,7.82
2022-11-05T19:59:31.495Z,7.82
2022-11-05T20:01:03.346Z,7.90
2022-11-05T20:02:36.581Z,7.35
2022-11-05T20:04:12.049Z,7.55
2022-11-05T20:05:43.898Z,7.55
2022-11-05T20:07:15.568Z,7.85
2022-11-05T20:09:15.233Z,7.30
2022-11-05T20:10:41.680Z,8.05
2022-11-05T20:12:13.338Z,7.78
2022-11-05T20:13:45.066Z,7.85
2022-11-05T20:15:22.063Z,7.80
2022-11-05T20:16:59.304Z,7.72
2022-11-05T20:18:32.587Z,8.50
2022-11-05T20:20:05.259Z,8.18
2022-11-05T20:21:37.067Z,7.78
2022-11-05T20:23:08.863Z,8.38
2022-11-05T20:24:40.633Z,7.28
2022-11-05T20:26:12.314Z,8.45
2022-11-05T20:27:44.067Z,7.75
2022-11-05T20:29:15.695Z,7.85
2022-11-05T20:30:47.323Z,8.27
2022-11-05T20:32:19.018Z,7.75
2022-11-05T20:33:52.356Z,9.98
2022-11-05T20:35:24.053Z,12.38
2022-11-05T20:36:55.771Z,9.15
2022-11-05T20:38:27.366Z,8.23
2022-11-05T20:39:58.943Z,7.70
2022-11-05T20:41:31.498Z,8.18
2022-11-05T20:43:03.094Z,7.93
2022-11-05T20:44:34.781Z,8.07
2022-11-05T20:46:06.763Z,7.90
2022-11-05T20:47:38.371Z,8.10
2022-11-05T20:49:11.450Z,8.25
2022-11-05T20:50:43.481Z,8.77
2022-11-05T20:52:17.151Z,9.30
2022-11-05T20:53:49.222Z,8.75
2022-11-05T20:55:20.914Z,9.00
2022-11-05T20:56:52.579Z,8.85
2022-11-05T20:58:24.281Z,9.20
2022-11-05T20:59:55.922Z,8.70
2022-11-05T21:01:28.504Z,8.40
2022-11-05T21:03:00.386Z,8.50
2022-11-05T21:04:33.407Z,8.40
2022-11-05T21:06:06.425Z,8.30
2022-11-05T21:07:38.099Z,8.63
2022-11-05T21:09:09.784Z,8.13
2022-11-05T21:10:41.462Z,9.07
2022-11-05T21:12:13.174Z,8.60
2022-11-05T21:13:44.855Z,8.23
2022-11-05T21:15:20.269Z,8.38
2022-11-05T21:16:51.921Z,7.65
2022-11-05T21:18:24.378Z,7.93
2022-11-05T21:19:57.309Z,7.68
2022-11-05T21:21:31.571Z,7.50
2022-11-05T21:23:03.182Z,8.10